Time;durP1;ratioP1;P1;durP2;ratioP2;P2;SDS_P1;SDS_P2;PMS_P1;PMS_P2;Temp;Humidity;BMP_temperature;BMP_pressure;BME280_temperature;BME280_humidity;BME280_pressure;Samples;Min_cycle;Max_cycle;Signal;HPM_P1;HPM_P2
2022/01/07 00:00:59;;;;;;;5.50;5.00;;;;;;;4.56;61.47;95049.16;4912979;29;20084;-80
2022/01/07 00:03:25;;;;;;;7.25;4.60;;;;;;;4.58;60.60;95047.97;4929238;29;20035;-80
2022/01/07 00:05:51;;;;;;;5.32;4.82;;;;;;;4.62;61.06;95043.22;4897809;29;20035;-80
2022/01/07 00:08:16;;;;;;;4.97;4.55;;;;;;;4.65;60.39;95048.78;4899976;29;20591;-79
2022/01/07 00:10:42;;;;;;;6.43;4.30;;;;;;;4.69;60.54;95049.19;4919488;29;20035;-80
2022/01/07 00:13:11;;;;;;;4.63;4.25;;;;;;;4.75;60.62;95051.03;4930987;29;20028;-79
2022/01/07 00:15:36;;;;;;;4.40;4.07;;;;;;;4.75;61.18;95059.56;4915764;29;20063;-80
2022/01/07 00:18:02;;;;;;;6.53;5.55;;;;;;;4.79;60.17;95062.53;4915226;29;20091;-80
2022/01/07 00:20:27;;;;;;;10.70;4.25;;;;;;;4.79;60.62;95060.75;4922764;24;20060;-79
2022/01/07 00:22:53;;;;;;;5.80;5.30;;;;;;;4.78;59.92;95058.38;4936343;29;20040;-79
2022/01/07 00:25:18;;;;;;;4.65;4.13;;;;;;;4.83;60.47;95061.97;4929437;29;20039;-79
2022/01/07 00:27:44;;;;;;;6.53;5.55;;;;;;;4.81;59.93;95066.53;4947375;29;20047;-79
2022/01/07 00:30:10;;;;;;;4.88;4.57;;;;;;;4.81;60.38;95058.00;4917155;29;20039;-80
2022/01/07 00:32:36;;;;;;;10.10;5.78;;;;;;;4.87;59.50;95059.81;4946341;29;20032;-80
2022/01/07 00:35:02;;;;;;;5.72;5.20;;;;;;;4.81;59.75;95053.63;4946355;29;20090;-79
2022/01/07 00:37:27;;;;;;;4.93;4.50;;;;;;;4.76;60.14;95045.69;4947794;29;20070;-79
2022/01/07 00:39:52;;;;;;;6.15;5.35;;;;;;;4.71;59.42;95057.53;4947320;28;20045;-80
2022/01/07 00:42:18;;;;;;;7.03;5.10;;;;;;;4.72;59.88;95049.66;4946685;29;21001;-80
2022/01/07 00:44:43;;;;;;;7.50;5.47;;;;;;;4.75;59.85;95059.56;4900303;29;20070;-79
2022/01/07 00:47:10;;;;;;;7.82;5.30;;;;;;;4.76;60.03;95056.00;4915827;29;20122;-80
2022/01/07 00:49:35;;;;;;;6.18;4.72;;;;;;;4.68;60.06;95066.44;4930674;29;20094;-79
2022/01/07 00:52:01;;;;;;;5.93;5.20;;;;;;;4.72;59.86;95080.56;4916653;29;20100;-79
2022/01/07 00:54:27;;;;;;;7.50;4.63;;;;;;;4.73;60.28;95081.34;4929933;29;20031;-79
2022/01/07 00:56:54;;;;;;;5.78;5.20;;;;;;;4.71;60.02;95083.28;4914717;29;20063;-80
2022/01/07 00:59:20;;;;;;;5.10;4.70;;;;;;;4.64;59.81;95088.41;4915675;29;20039;-79
2022/01/07 01:01:46;;;;;;;4.93;4.50;;;;;;;4.63;60.22;95086.81;4932433;29;20043;-79
2022/01/07 01:04:12;;;;;;;9.30;5.07;;;;;;;4.61;60.28;95088.78;4914373;29;20028;-79
2022/01/07 01:06:40;;;;;;;5.40;4.90;;;;;;;4.57;60.27;95097.88;4917246;29;20034;-80
2022/01/07 01:09:09;;;;;;;6.35;5.75;;;;;;;4.56;60.48;95090.34;4931373;29;20456;-79
2022/01/07 01:11:35;;;;;;;7.90;6.05;;;;;;;4.50;60.92;95084.16;4947746;29;20031;-79
2022/01/07 01:14:01;;;;;;;9.07;6.20;;;;;;;4.39;60.92;95088.06;4930578;29;20046;-79
2022/01/07 01:16:26;;;;;;;8.90;6.65;;;;;;;4.40;61.24;95088.84;4929878;29;20070;-79
2022/01/07 01:18:52;;;;;;;5.43;5.00;;;;;;;4.31;60.93;95092.53;4931364;29;20038;-79
2022/01/07 01:21:17;;;;;;;7.40;5.53;;;;;;;4.28;61.19;95100.63;4930213;29;20526;-80
2022/01/07 01:23:45;;;;;;;5.22;4.78;;;;;;;4.25;61.42;95090.69;4925819;23;20044;-80
2022/01/07 01:26:12;;;;;;;6.10;5.50;;;;;;;4.24;61.29;95096.84;4931982;29;20043;-78
2022/01/07 01:28:37;;;;;;;7.88;5.10;;;;;;;4.25;61.84;95098.41;4912578;29;20060;-77
2022/01/07 01:31:03;;;;;;;9.50;6.10;;;;;;;4.28;62.08;95093.69;4922929;29;20036;-80
2022/01/07 01:33:28;;;;;;;6.90;6.00;;;;;;;4.34;61.95;95092.16;4893043;29;20037;-79
2022/01/07 01:35:54;;;;;;;6.13;5.32;;;;;;;4.37;61.51;95092.56;4901652;24;20047;-79
2022/01/07 01:38:19;;;;;;;7.32;4.95;;;;;;;4.39;60.81;95089.78;4942198;29;20039;-80
2022/01/07 01:40:47;;;;;;;6.28;5.68;;;;;;;4.38;61.45;95093.34;4947854;29;20052;-79
2022/01/07 01:43:12;;;;;;;6.10;5.53;;;;;;;4.36;61.47;95090.97;4914720;29;20440;-79
2022/01/07 01:45:38;;;;;;;6.22;5.57;;;;;;;4.39;61.43;95093.19;4913955;29;20054;-79
2022/01/07 01:48:11;;;;;;;6.88;5.18;;;;;;;4.39;61.33;95100.91;5168227;23;20649;-79
2022/01/07 01:50:36;;;;;;;6.72;5.75;;;;;;;4.40;60.98;95099.13;4899029;29;20657;-79
2022/01/07 01:53:01;;;;;;;5.38;4.85;;;;;;;4.41;61.14;95098.16;4907050;23;20040;-79
2022/01/07 01:55:29;;;;;;;5.18;4.78;;;;;;;4.43;60.74;95085.88;4909395;29;20059;-79
2022/01/07 01:57:55;;;;;;;11.52;5.07;;;;;;;4.44;60.78;95097.78;4898559;29;20120;-79
2022/01/07 02:00:22;;;;;;;5.60;5.10;;;;;;;4.34;61.53;95089.56;4892089;29;20613;-79
2022/01/07 02:02:47;;;;;;;8.02;4.70;;;;;;;4.22;61.41;95095.22;4874874;29;20036;-79
2022/01/07 02:05:13;;;;;;;8.55;5.43;;;;;;;4.14;61.31;95089.41;4893840;29;20082;-79
2022/01/07 02:07:40;;;;;;;6.57;5.25;;;;;;;4.08;61.83;95093.53;4877648;29;20055;-79
2022/01/07 02:10:06;;;;;;;7.95;5.05;;;;;;;3.93;62.75;95095.38;4892061;29;20045;-79
2022/01/07 02:12:32;;;;;;;5.85;5.03;;;;;;;3.92;62.81;95092.00;4908886;29;20547;-78
2022/01/07 02:14:57;;;;;;;5.60;4.82;;;;;;;3.87;62.74;95103.78;4891698;29;20032;-79
2022/01/07 02:17:23;;;;;;;7.30;5.05;;;;;;;3.90;62.95;95103.44;4876825;29;20587;-78
2022/01/07 02:19:49;;;;;;;6.78;5.10;;;;;;;3.92;63.03;95104.06;4876820;29;20032;-79
2022/01/07 02:22:17;;;;;;;5.32;4.50;;;;;;;3.90;63.31;95101.69;4890466;29;20048;-78
2022/01/07 02:24:43;;;;;;;6.78;4.85;;;;;;;3.97;62.75;95111.22;4891419;29;20060;-79
2022/01/07 02:27:08;;;;;;;6.25;5.07;;;;;;;3.96;62.75;95110.44;4893067;29;20103;-78
2022/01/07 02:29:34;;;;;;;6.60;5.50;;;;;;;3.96;62.57;95107.84;4874406;29;20025;-78
2022/01/07 02:32:03;;;;;;;5.10;4.70;;;;;;;3.95;62.60;95113.97;4905452;29;20040;-78
2022/01/07 02:34:28;;;;;;;4.60;4.22;;;;;;;3.96;62.49;95107.84;4891034;29;20040;-78
2022/01/07 02:36:54;;;;;;;6.63;4.85;;;;;;;3.89;62.61;95114.69;4905909;29;20039;-78
2022/01/07 02:39:19;;;;;;;6.70;4.75;;;;;;;3.83;63.08;95112.88;4908545;29;20182;-77
2022/01/07 02:41:45;;;;;;;4.68;4.28;;;;;;;3.73;63.38;95115.72;4892211;29;20051;-78
2022/01/07 02:44:10;;;;;;;4.85;4.45;;;;;;;3.68;63.42;95124.97;4890623;29;20040;-78
2022/01/07 02:46:36;;;;;;;8.23;6.18;;;;;;;3.60;63.73;95123.31;4890691;29;20036;-78
2022/01/07 02:49:11;;;;;;;5.72;5.20;;;;;;;3.61;64.03;95123.13;4892194;29;20079;-78
2022/01/07 02:51:38;;;;;;;9.30;5.30;;;;;;;3.63;64.04;95127.28;4892344;29;20048;-78
2022/01/07 02:54:04;;;;;;;7.32;5.82;;;;;;;3.65;64.02;95127.91;4906761;29;20040;-78
2022/01/07 02:56:29;;;;;;;5.78;5.28;;;;;;;3.64;63.96;95127.09;4906602;29;20579;-78
2022/01/07 02:58:55;;;;;;;9.48;5.85;;;;;;;3.66;62.97;95129.50;4889498;29;20509;-79
2022/01/07 03:01:20;;;;;;;9.07;5.60;;;;;;;3.69;63.76;95124.78;4891312;29;20044;-79
2022/01/07 03:03:45;;;;;;;8.75;5.57;;;;;;;3.72;63.54;95123.63;4873949;29;20044;-78
2022/01/07 03:06:11;;;;;;;7.75;5.82;;;;;;;3.74;62.86;95119.09;4890312;29;20497;-77
2022/01/07 03:08:36;;;;;;;10.32;6.15;;;;;;;3.77;63.21;95127.25;4889713;29;20052;-78
2022/01/07 03:11:18;;;;;;;6.57;5.35;;;;;;;3.85;63.19;95118.63;4857515;29;20080;-78
2022/01/07 03:13:44;;;;;;;7.55;5.53;;;;;;;3.94;62.90;95122.69;4904760;29;20111;-78
2022/01/07 03:16:09;;;;;;;6.10;5.28;;;;;;;4.00;62.21;95127.09;4906705;29;20054;-78
2022/01/07 03:18:35;;;;;;;6.85;5.72;;;;;;;4.02;62.55;95130.28;4907131;29;20031;-79
2022/01/07 03:21:00;;;;;;;7.80;5.07;;;;;;;4.02;61.96;95132.84;4889863;29;20096;-78
2022/01/07 03:23:26;;;;;;;6.25;5.35;;;;;;;3.98;62.22;95131.63;4905856;29;20573;-78
2022/01/07 03:25:51;;;;;;;7.32;4.90;;;;;;;4.00;62.55;95137.38;4888263;29;20516;-79
2022/01/07 03:28:19;;;;;;;7.90;5.85;;;;;;;3.98;62.61;95144.50;4889940;29;20087;-78
2022/01/07 03:30:44;;;;;;;5.55;5.05;;;;;;;3.92;62.57;95128.00;4889809;29;20067;-78
2022/01/07 03:33:10;;;;;;;6.35;5.75;;;;;;;3.96;62.63;95136.16;4890465;29;20071;-78
2022/01/07 03:35:35;;;;;;;6.65;6.05;;;;;;;3.94;62.50;95132.97;4876139;29;20089;-79
2022/01/07 03:38:01;;;;;;;6.80;6.10;;;;;;;3.99;62.38;95135.78;4906454;29;20036;-78
2022/01/07 03:40:26;;;;;;;5.65;5.10;;;;;;;4.06;62.06;95136.63;4871325;29;20040;-78
2022/01/07 03:42:52;;;;;;;10.43;7.40;;;;;;;4.12;61.83;95135.91;4905119;29;20045;-78
2022/01/07 03:45:18;;;;;;;12.68;6.20;;;;;;;4.15;61.86;95147.63;4906651;29;20115;-78
2022/01/07 03:47:43;;;;;;;6.80;4.95;;;;;;;4.24;61.68;95153.47;4872238;29;20040;-78
2022/01/07 03:50:11;;;;;;;7.43;5.90;;;;;;;4.26;61.63;95156.63;4903461;29;20431;-78
2022/01/07 03:52:36;;;;;;;6.22;5.63;;;;;;;4.24;61.58;95151.69;4873129;29;20044;-78
2022/01/07 03:55:03;;;;;;;10.02;6.75;;;;;;;4.18;61.25;95155.75;4872316;29;20048;-78
2022/01/07 03:57:32;;;;;;;10.65;5.47;;;;;;;4.26;61.52;95154.88;4888770;29;20528;-78
2022/01/07 04:00:00;;;;;;;10.45;6.80;;;;;;;4.31;61.48;95154.31;4905971;29;20056;-78
2022/01/07 04:02:26;;;;;;;11.27;6.20;;;;;;;4.29;61.08;95151.91;4899648;23;20041;-78
2022/01/07 04:04:51;;;;;;;12.90;6.97;;;;;;;4.30;61.31;95155.28;4903578;29;20041;-78
2022/01/07 04:07:16;;;;;;;6.80;6.18;;;;;;;4.34;60.43;95148.78;4905799;29;20047;-78
2022/01/07 04:09:42;;;;;;;10.63;7.13;;;;;;;4.28;60.37;95154.69;4894797;29;20413;-78
2022/01/07 04:12:08;;;;;;;7.05;6.35;;;;;;;4.18;61.06;95145.47;4896282;29;20044;-78
2022/01/07 04:14:33;;;;;;;6.63;5.32;;;;;;;4.09;61.57;95156.09;4879629;29;20037;-78
2022/01/07 04:17:02;;;;;;;12.40;6.55;;;;;;;4.04;61.71;95164.31;4894861;29;20024;-79
2022/01/07 04:19:28;;;;;;;9.32;6.97;;;;;;;4.05;62.25;95160.78;4895668;29;20041;-78
2022/01/07 04:21:53;;;;;;;6.75;6.13;;;;;;;3.97;61.75;95168.63;4894951;29;20059;-78
2022/01/07 04:24:19;;;;;;;6.45;5.88;;;;;;;3.98;61.59;95165.06;4895047;29;20043;-78
2022/01/07 04:26:44;;;;;;;6.90;6.20;;;;;;;3.88;62.70;95172.28;4894624;29;20486;-78
2022/01/07 04:29:10;;;;;;;8.98;6.05;;;;;;;3.89;62.23;95176.44;4879288;29;20367;-78
2022/01/07 04:31:35;;;;;;;7.65;5.85;;;;;;;3.91;62.11;95180.44;4879870;29;20048;-79
2022/01/07 04:34:01;;;;;;;9.13;6.55;;;;;;;3.94;62.33;95179.28;4895178;29;20036;-79
2022/01/07 04:36:26;;;;;;;7.63;5.88;;;;;;;3.98;62.32;95175.38;4895775;29;20051;-78
2022/01/07 04:38:52;;;;;;;7.85;6.50;;;;;;;4.02;62.19;95181.72;4879640;29;20041;-79
2022/01/07 04:41:17;;;;;;;7.45;6.63;;;;;;;4.11;61.60;95180.66;4895276;29;20138;-79
2022/01/07 04:43:42;;;;;;;6.85;5.35;;;;;;;4.10;62.21;95184.22;4896615;29;20032;-78
2022/01/07 04:46:08;;;;;;;8.57;6.80;;;;;;;4.24;61.33;95185.13;4895206;29;20037;-78
2022/01/07 04:48:33;;;;;;;9.48;7.43;;;;;;;4.19;61.74;95188.25;4879290;24;20072;-78
2022/01/07 04:51:05;;;;;;;7.03;6.32;;;;;;;4.21;62.06;95193.19;4895328;29;20409;-78
2022/01/07 04:53:30;;;;;;;12.20;7.30;;;;;;;4.24;61.13;95194.66;4884833;29;20051;-79
2022/01/07 04:55:58;;;;;;;9.52;7.18;;;;;;;4.24;61.87;95192.06;4911071;29;20040;-79
2022/01/07 04:58:24;;;;;;;12.57;8.25;;;;;;;4.30;61.69;95189.53;4911001;29;20084;-79
2022/01/07 05:00:49;;;;;;;17.42;10.48;;;;;;;4.34;61.32;95197.69;4892246;29;20060;-79
2022/01/07 05:03:33;;;;;;;28.27;12.88;;;;;;;4.43;61.49;95194.03;4892788;23;20113;-78
2022/01/07 05:06:44;;;;;;;14.50;9.48;;;;;;;4.47;60.47;95200.41;4908441;29;20161;-79
2022/01/07 05:08:44;;;;;;;15.80;10.02;;;;;;;4.47;60.50;95210.69;4904400;29;20480;-79
2022/01/07 05:11:14;;;;;;;16.70;9.18;;;;;;;4.50;60.87;95200.03;4900475;29;20044;-79
2022/01/07 05:13:40;;;;;;;12.38;8.45;;;;;;;4.51;60.32;95206.75;4900312;29;20040;-79
2022/01/07 05:16:05;;;;;;;11.02;8.40;;;;;;;4.51;59.92;95202.41;4903334;23;20167;-79
2022/01/07 05:18:31;;;;;;;17.65;11.13;;;;;;;4.52;60.38;95204.00;4905451;29;20041;-77
2022/01/07 05:20:56;;;;;;;9.88;7.82;;;;;;;4.52;60.26;95204.00;4948441;23;20105;-80
2022/01/07 05:23:22;;;;;;;10.25;8.20;;;;;;;4.56;61.05;95208.81;4919776;29;20063;-80
2022/01/07 05:25:50;;;;;;;10.45;9.07;;;;;;;4.52;60.42;95203.22;4893060;29;20044;-80
2022/01/07 05:28:18;;;;;;;10.98;8.27;;;;;;;4.50;60.95;95205.19;4891825;29;20024;-79
2022/01/07 05:30:43;;;;;;;15.93;11.30;;;;;;;4.52;60.53;95210.94;4892161;29;20508;-80
2022/01/07 05:33:08;;;;;;;16.30;10.27;;;;;;;4.53;60.87;95212.53;4917759;24;20048;-80
2022/01/07 05:35:34;;;;;;;21.25;13.45;;;;;;;4.55;60.46;95214.91;4901228;29;20604;-79
2022/01/07 05:38:02;;;;;;;40.55;19.17;;;;;;;4.58;60.52;95217.94;4877962;29;20041;-79
2022/01/07 05:40:28;;;;;;;26.40;16.45;;;;;;;4.58;60.44;95214.56;4860273;29;20068;-79
2022/01/07 05:42:53;;;;;;;26.67;14.20;;;;;;;4.60;60.33;95215.97;4882609;29;20054;-80
2022/01/07 05:45:19;;;;;;;20.50;10.48;;;;;;;4.62;60.30;95221.75;4882150;29;20036;-81
2022/01/07 05:47:47;;;;;;;20.42;13.68;;;;;;;4.63;60.85;95220.75;4867124;29;20493;-81
2022/01/07 05:50:13;;;;;;;22.25;12.57;;;;;;;4.59;60.72;95219.53;4859706;29;20485;-80
2022/01/07 05:52:39;;;;;;;21.83;15.20;;;;;;;4.64;59.81;95222.34;4896649;29;20044;-80
2022/01/07 05:55:05;;;;;;;18.92;12.40;;;;;;;4.56;60.82;95222.47;4882113;29;20040;-80
2022/01/07 05:57:30;;;;;;;17.17;11.18;;;;;;;4.53;60.47;95221.03;4865034;29;20047;-80
2022/01/07 05:59:55;;;;;;;20.13;12.30;;;;;;;4.50;61.11;95225.78;4865861;29;20052;-80
2022/01/07 06:02:21;;;;;;;13.95;10.05;;;;;;;4.48;61.15;95230.31;4860579;29;20577;-79
2022/01/07 06:04:46;;;;;;;16.30;11.00;;;;;;;4.48;61.53;95222.59;4898192;29;20824;-79
2022/01/07 06:07:12;;;;;;;19.80;9.75;;;;;;;4.46;61.20;95225.34;4881832;29;20603;-80
2022/01/07 06:09:37;;;;;;;15.90;11.00;;;;;;;4.45;60.94;95230.69;4867444;29;20184;-80
2022/01/07 06:12:03;;;;;;;13.23;9.68;;;;;;;4.33;61.03;95227.00;4883850;29;20036;-81
2022/01/07 06:14:31;;;;;;;17.25;11.20;;;;;;;4.32;61.49;95222.81;4883387;29;20127;-86
2022/01/07 06:16:56;;;;;;;17.52;10.85;;;;;;;4.34;61.28;95221.66;4870728;29;20032;-87
2022/01/07 06:19:22;;;;;;;23.10;12.90;;;;;;;4.35;61.32;95222.44;4886527;29;20044;-86
2022/01/07 06:21:48;;;;;;;22.10;11.68;;;;;;;4.32;61.32;95222.81;4862606;29;20047;-87
2022/01/07 06:24:13;;;;;;;14.40;10.07;;;;;;;4.31;61.26;95221.22;4886025;29;20029;-85
2022/01/07 06:26:39;;;;;;;11.88;8.82;;;;;;;4.29;61.51;95228.34;4871839;29;20028;-85
2022/01/07 06:29:05;;;;;;;15.60;8.88;;;;;;;4.35;61.12;95235.31;4895236;29;20424;-87
2022/01/07 06:31:31;;;;;;;32.97;11.93;;;;;;;4.38;61.49;95234.97;4887787;29;20058;-85
2022/01/07 06:33:58;;;;;;;18.55;11.27;;;;;;;4.43;60.68;95242.94;4873382;29;20025;-85
2022/01/07 06:36:24;;;;;;;14.52;9.65;;;;;;;4.44;60.74;95247.13;4888899;29;20044;-87
2022/01/07 06:38:52;;;;;;;21.73;12.02;;;;;;;4.55;61.01;95250.97;4884793;29;20048;-79
2022/01/07 06:41:17;;;;;;;16.73;11.55;;;;;;;4.52;60.64;95244.41;4908614;29;20039;-78
2022/01/07 06:43:43;;;;;;;12.65;9.65;;;;;;;4.53;59.94;95240.84;4891565;29;20033;-79
2022/01/07 06:46:11;;;;;;;10.48;8.52;;;;;;;4.45;60.85;95256.44;4881070;29;20040;-78
2022/01/07 06:48:37;;;;;;;14.30;11.32;;;;;;;4.42;61.24;95259.38;4897302;29;20044;-78
2022/01/07 06:51:02;;;;;;;16.15;10.45;;;;;;;4.43;61.18;95260.97;4874281;29;20031;-78
2022/01/07 06:53:30;;;;;;;12.07;8.70;;;;;;;4.38;60.81;95260.69;4910479;29;20028;-78
2022/01/07 06:55:59;;;;;;;20.73;10.05;;;;;;;4.43;60.80;95263.56;4902741;29;20038;-79
2022/01/07 06:58:25;;;;;;;21.45;12.85;;;;;;;4.49;60.81;95265.38;4886092;29;20029;-79
2022/01/07 07:00:50;;;;;;;16.73;12.25;;;;;;;4.59;60.81;95257.38;4863663;29;20059;-80
2022/01/07 07:03:16;;;;;;;22.30;13.48;;;;;;;4.69;60.47;95258.66;4862186;29;20553;-79
2022/01/07 07:05:41;;;;;;;19.48;14.95;;;;;;;4.76;59.78;95264.66;4885767;29;20036;-80
2022/01/07 07:08:07;;;;;;;18.85;12.80;;;;;;;4.83;59.68;95257.78;4902181;29;20029;-79
2022/01/07 07:10:32;;;;;;;20.77;12.63;;;;;;;4.95;58.85;95259.88;4885624;29;20596;-80
2022/01/07 07:12:58;;;;;;;19.13;12.23;;;;;;;5.00;59.42;95265.25;4861448;29;20436;-79
2022/01/07 07:15:23;;;;;;;24.95;14.80;;;;;;;5.04;58.46;95269.03;4884051;29;20033;-79
2022/01/07 07:17:49;;;;;;;21.63;13.93;;;;;;;5.09;59.00;95261.56;4884713;29;20051;-80
2022/01/07 07:20:18;;;;;;;14.77;10.60;;;;;;;5.09;58.44;95261.56;4900486;29;20048;-79
2022/01/07 07:22:44;;;;;;;15.15;10.50;;;;;;;5.12;58.81;95263.78;4886070;29;20029;-80
2022/01/07 07:25:10;;;;;;;20.27;13.38;;;;;;;5.10;58.64;95263.16;4902026;29;20033;-79
2022/01/07 07:27:36;;;;;;;34.28;15.57;;;;;;;5.07;58.52;95269.50;4869896;29;20028;-78
2022/01/07 07:30:06;;;;;;;24.38;16.23;;;;;;;5.13;58.09;95267.94;4859714;29;20060;-78
2022/01/07 07:32:32;;;;;;;18.08;12.95;;;;;;;5.28;58.22;95271.22;4898240;29;20493;-81
2022/01/07 07:37:26;;;;;;;19.33;12.98;;;;;;;5.52;57.50;95271.78;4883928;29;20028;-81
2022/01/07 07:39:51;;;;;;;23.25;14.70;;;;;;;5.58;56.91;95268.47;4863050;29;20037;-81
2022/01/07 07:42:17;;;;;;;21.02;13.27;;;;;;;5.59;57.53;95257.16;4863108;29;20036;-80
2022/01/07 07:44:43;;;;;;;20.83;12.43;;;;;;;5.69;56.25;95260.16;4870493;29;20468;-80
2022/01/07 07:47:08;;;;;;;16.63;12.07;;;;;;;5.76;56.23;95268.75;4900172;29;20414;-81
2022/01/07 07:49:33;;;;;;;22.85;13.13;;;;;;;5.77;55.83;95266.97;4853946;29;20572;-83
2022/01/07 07:51:59;;;;;;;17.20;12.32;;;;;;;5.73;56.64;95269.94;4877769;29;20124;-81
2022/01/07 07:54:25;;;;;;;19.83;10.80;;;;;;;5.67;56.37;95269.88;4859559;29;20055;-81
2022/01/07 07:56:50;;;;;;;17.67;12.40;;;;;;;5.60;56.55;95258.75;4899785;29;20072;-78
2022/01/07 07:59:16;;;;;;;29.00;12.80;;;;;;;5.58;57.31;95260.72;4874921;29;20500;-80
2022/01/07 08:01:41;;;;;;;16.80;11.05;;;;;;;5.50;56.76;95263.44;4859666;29;20043;-81
2022/01/07 08:04:07;;;;;;;21.27;11.55;;;;;;;5.52;57.35;95261.47;4881693;29;20120;-80
2022/01/07 08:06:32;;;;;;;25.08;13.10;;;;;;;5.67;57.21;95264.72;4851969;29;20040;-80
2022/01/07 08:08:58;;;;;;;33.70;17.67;;;;;;;5.85;56.61;95272.75;4860629;29;20032;-80
2022/01/07 08:11:27;;;;;;;36.08;18.85;;;;;;;5.96;56.26;95267.09;4875241;29;20378;-81
2022/01/07 08:16:37;;;;;;;25.33;12.55;;;;;;;6.08;56.12;95257.03;4884868;29;20047;-80
2022/01/07 08:19:05;;;;;;;11.25;9.32;;;;;;;6.13;54.73;95265.00;4867012;29;20469;-80
2022/01/07 08:21:31;;;;;;;23.38;11.43;;;;;;;6.20;56.02;95265.03;4898332;29;20036;-80
2022/01/07 08:23:59;;;;;;;35.92;20.17;;;;;;;6.34;55.46;95261.47;4849280;29;20055;-81
2022/01/07 08:26:25;;;;;;;38.40;22.17;;;;;;;6.52;54.41;95256.59;4859699;29;20041;-82
2022/01/07 08:28:58;;;;;;;29.83;19.48;;;;;;;6.67;54.18;95266.75;4868729;29;20123;-85
2022/01/07 08:36:34;;;;;;;27.83;17.08;;;;;;;6.92;53.39;95259.22;4885443;29;20458;-81
2022/01/07 08:38:59;;;;;;;30.20;17.77;;;;;;;7.02;53.03;95259.63;4866837;29;20432;-78
2022/01/07 08:41:32;;;;;;;55.30;28.23;;;;;;;7.17;52.72;95254.28;4899880;29;20040;-79
2022/01/07 08:43:57;;;;;;;;;;;;;;;7.28;52.63;95253.66;4855414;29;20036;-80
2022/01/07 08:46:23;;;;;;;27.83;17.58;;;;;;;7.41;52.45;95252.84;4884820;29;19926;-81
2022/01/07 08:48:48;;;;;;;50.15;27.00;;;;;;;7.47;51.59;95242.47;4870036;29;20070;-81
2022/01/07 08:51:14;;;;;;;40.30;22.40;;;;;;;7.52;51.58;95249.66;4854850;29;20043;-82
2022/01/07 08:53:39;;;;;;;30.42;17.73;;;;;;;7.47;51.69;95241.69;4900306;29;20092;-81
2022/01/07 08:56:05;;;;;;;32.28;17.85;;;;;;;7.50;51.78;95242.09;4870359;29;20036;-81
2022/01/07 08:58:31;;;;;;;16.58;11.85;;;;;;;7.43;51.55;95236.13;4864954;29;20041;-81
2022/01/07 09:00:56;;;;;;;22.92;11.43;;;;;;;7.46;51.21;95240.09;4887473;29;20072;-82
2022/01/07 09:03:23;;;;;;;14.32;10.95;;;;;;;7.38;51.54;95228.19;4866335;29;20155;-82
2022/01/07 09:05:48;;;;;;;43.00;26.42;;;;;;;7.35;51.91;95228.59;4879584;29;20082;-82
2022/01/07 09:08:16;;;;;;;31.33;18.58;;;;;;;7.29;52.21;95223.41;4867738;29;20036;-82
2022/01/07 09:10:42;;;;;;;33.67;19.75;;;;;;;7.33;52.38;95224.59;4887655;29;20028;-82
2022/01/07 09:13:08;;;;;;;58.97;29.38;;;;;;;7.41;51.77;95226.97;4861869;29;20061;-83
2022/01/07 09:15:34;;;;;;;28.90;18.33;;;;;;;7.39;51.92;95221.22;4882309;29;20044;-84
2022/01/07 09:18:00;;;;;;;14.20;10.98;;;;;;;7.46;51.78;95224.56;4869494;29;20055;-82
2022/01/07 09:20:25;;;;;;;27.10;15.65;;;;;;;7.51;51.82;95217.81;4884934;29;20048;-83
2022/01/07 09:22:51;;;;;;;57.22;31.77;;;;;;;7.64;51.70;95211.78;4895965;29;20095;-82
2022/01/07 09:25:19;;;;;;;50.42;27.10;;;;;;;7.68;51.87;95218.16;4895589;29;20952;-80
2022/01/07 09:27:45;;;;;;;31.25;20.13;;;;;;;7.76;50.53;95214.53;4879598;29;20424;-82
2022/01/07 09:30:11;;;;;;;43.50;23.00;;;;;;;7.80;50.65;95206.16;4871363;29;20052;-83
2022/01/07 09:32:41;;;;;;;30.70;20.02;;;;;;;7.80;50.66;95211.34;4868055;29;20032;-83
2022/01/07 09:35:07;;;;;;;28.00;15.82;;;;;;;7.81;50.84;95202.59;4849270;29;20420;-82
2022/01/07 09:37:36;;;;;;;34.90;19.08;;;;;;;7.86;50.34;95198.59;4882438;29;20716;-82
2022/01/07 09:40:02;;;;;;;27.40;16.58;;;;;;;7.92;50.28;95198.56;4880516;29;20160;-82
2022/01/07 09:42:28;;;;;;;30.30;15.73;;;;;;;8.06;50.23;95200.09;4877054;29;20108;-81
2022/01/07 09:44:54;;;;;;;24.38;13.45;;;;;;;8.17;49.91;95196.06;4865561;29;20041;-80
2022/01/07 09:47:19;;;;;;;28.10;13.38;;;;;;;8.21;49.84;95186.88;4881229;29;20100;-82
2022/01/07 09:49:45;;;;;;;14.07;10.05;;;;;;;8.36;49.15;95184.84;4867170;29;20536;-82
2022/01/07 09:52:11;;;;;;;11.48;9.18;;;;;;;8.42;48.66;95186.56;4881152;29;20429;-82
2022/01/07 09:54:37;;;;;;;11.88;9.13;;;;;;;8.45;48.70;95181.97;4874325;29;20117;-83
2022/01/07 09:57:04;;;;;;;21.20;13.40;;;;;;;8.46;49.21;95188.75;4864294;29;20036;-83
2022/01/07 09:59:30;;;;;;;29.25;17.42;;;;;;;8.55;48.20;95184.91;4857794;29;20041;-81
2022/01/07 10:02:03;;;;;;;18.10;9.45;;;;;;;8.64;48.06;95181.06;4898874;29;20103;-80
2022/01/07 10:04:33;;;;;;;11.80;8.32;;;;;;;8.72;47.03;95179.00;4858418;29;20040;-81
2022/01/07 10:07:20;;;;;;;14.07;9.68;;;;;;;8.81;47.67;95181.34;4895615;29;20056;-81
2022/01/07 10:10:16;;;;;;;10.43;8.30;;;;;;;8.84;46.69;95179.13;4881802;29;20048;-82
2022/01/07 10:12:55;;;;;;;16.23;8.70;;;;;;;8.84;47.32;95173.94;4889080;29;20045;-82
2022/01/07 10:15:25;;;;;;;16.05;9.25;;;;;;;8.92;46.98;95181.44;4897523;29;20080;-83
2022/01/07 10:18:04;;;;;;;12.85;7.80;;;;;;;8.91;46.51;95173.88;4890618;29;20037;-82
2022/01/07 10:20:36;;;;;;;12.40;8.00;;;;;;;8.88;46.83;95177.69;4881131;29;20047;-81
2022/01/07 10:23:04;;;;;;;15.82;8.85;;;;;;;8.89;47.40;95175.88;4865328;29;20084;-82
2022/01/07 10:25:31;;;;;;;14.48;9.25;;;;;;;8.89;47.11;95162.91;4867335;29;20183;-83
2022/01/07 10:28:03;;;;;;;13.77;9.60;;;;;;;8.83;47.77;95161.97;4884196;29;20039;-83
2022/01/07 10:30:38;;;;;;;19.80;12.13;;;;;;;8.87;47.12;95160.53;4897991;29;20104;-81
2022/01/07 10:33:23;;;;;;;26.30;15.13;;;;;;;8.98;47.32;95157.25;4874508;29;20300;-83
2022/01/07 10:36:19;;;;;;;19.25;12.82;;;;;;;9.19;47.46;95152.69;4891394;29;20028;-82
2022/01/07 10:38:55;;;;;;;18.50;10.30;;;;;;;9.27;46.85;95154.97;4881583;29;20101;-83
2022/01/07 10:41:23;;;;;;;12.93;9.13;;;;;;;9.24;47.23;95139.84;4859013;29;20039;-83
2022/01/07 10:43:49;;;;;;;11.70;8.43;;;;;;;9.27;48.28;95142.00;4873143;29;20033;-83
2022/01/07 10:46:27;;;;;;;13.35;9.55;;;;;;;9.27;47.71;95140.22;4864404;29;20067;-84
2022/01/07 10:48:57;;;;;;;26.00;10.18;;;;;;;9.25;48.30;95138.84;4860774;29;20458;-81
2022/01/07 10:51:33;;;;;;;21.70;11.23;;;;;;;9.24;47.13;95139.84;4878532;29;20037;-84
2022/01/07 10:54:05;;;;;;;16.40;11.20;;;;;;;9.18;46.95;95135.53;4863455;29;20084;-82
2022/01/07 10:56:34;;;;;;;19.25;10.15;;;;;;;9.19;46.39;95144.91;4878711;29;20084;-81
2022/01/07 10:59:04;;;;;;;14.05;10.18;;;;;;;9.20;47.15;95139.50;4893999;29;20048;-83
2022/01/07 11:01:39;;;;;;;17.88;10.35;;;;;;;9.25;46.48;95136.25;4880837;29;20044;-83
2022/01/07 11:04:07;;;;;;;14.10;9.55;;;;;;;9.27;47.06;95129.03;4896389;29;20028;-83
2022/01/07 11:06:33;;;;;;;14.48;9.52;;;;;;;9.28;47.71;95128.06;4863703;29;20489;-83
2022/01/07 11:08:58;;;;;;;18.23;11.13;;;;;;;9.31;47.18;95130.22;4847488;29;20040;-83
2022/01/07 11:11:25;;;;;;;13.75;10.30;;;;;;;9.31;46.45;95131.00;4878957;29;20108;-84
2022/01/07 11:13:51;;;;;;;20.20;10.32;;;;;;;9.28;46.21;95122.84;4861378;29;20025;-84
2022/01/07 11:16:19;;;;;;;12.75;10.32;;;;;;;9.25;46.54;95115.47;4864680;29;20039;-83
2022/01/07 11:18:45;;;;;;;18.85;11.38;;;;;;;9.23;47.22;95120.09;4842890;29;20116;-83
2022/01/07 11:21:14;;;;;;;20.13;10.38;;;;;;;9.23;47.18;95107.91;4861612;29;20083;-84
2022/01/07 11:23:41;;;;;;;17.15;10.43;;;;;;;9.29;46.79;95127.03;4856534;29;20119;-83
2022/01/07 11:26:08;;;;;;;12.60;9.55;;;;;;;9.29;46.29;95111.47;5071916;24;20049;-84
2022/01/07 11:28:33;;;;;;;13.95;10.15;;;;;;;9.30;46.58;95113.06;4866843;29;20138;-86
2022/01/07 11:31:09;;;;;;;14.00;9.63;;;;;;;9.26;45.97;95111.88;4857961;29;20063;-79
2022/01/07 11:33:34;;;;;;;21.42;10.57;;;;;;;9.32;46.58;95109.22;4895891;29;20051;-79
2022/01/07 11:36:00;;;;;;;13.25;10.35;;;;;;;9.28;45.66;95115.06;4897610;29;20040;-78
2022/01/07 11:38:51;;;;;;;13.65;9.85;;;;;;;9.25;44.62;95105.91;4873489;29;20056;-79
2022/01/07 11:41:47;;;;;;;13.57;8.02;;;;;;;9.21;45.03;95109.16;4884758;29;20063;-79
2022/01/07 11:44:20;;;;;;;11.98;8.73;;;;;;;9.10;45.03;95102.06;4898398;29;20044;-79